sensor_id;sensor_type;location;lat;lon;timestamp;pressure;altitude;pressure_sealevel;temperature;humidity
56374;BME280;58212;47.034;7.376;2023-07-24T00:02:06;94820.66;;;19.79;65.78
56374;BME280;58212;47.034;7.376;2023-07-24T00:04:34;94834.72;;;19.62;66.38
56374;BME280;58212;47.034;7.376;2023-07-24T00:07:01;94825.38;;;19.60;66.72
56374;BME280;58212;47.034;7.376;2023-07-24T00:09:29;94822.28;;;19.66;66.62
56374;BME280;58212;47.034;7.376;2023-07-24T00:11:55;94823.84;;;19.67;66.12
56374;BME280;58212;47.034;7.376;2023-07-24T00:14:26;94816.63;;;19.54;66.63
56374;BME280;58212;47.034;7.376;2023-07-24T00:16:52;94821.50;;;19.38;67.15
56374;BME280;58212;47.034;7.376;2023-07-24T00:19:19;94809.16;;;19.37;67.41
56374;BME280;58212;47.034;7.376;2023-07-24T00:21:47;94814.19;;;19.44;66.67
56374;BME280;58212;47.034;7.376;2023-07-24T00:24:15;94803.22;;;19.54;66.27
56374;BME280;58212;47.034;7.376;2023-07-24T00:26:41;94787.13;;;19.40;65.71
56374;BME280;58212;47.034;7.376;2023-07-24T00:29:08;94792.47;;;19.54;65.74
56374;BME280;58212;47.034;7.376;2023-07-24T00:31:35;94782.53;;;19.55;65.38
56374;BME280;58212;47.034;7.376;2023-07-24T00:34:26;94777.38;;;19.58;64.46
56374;BME280;58212;47.034;7.376;2023-07-24T00:36:54;94770.59;;;19.61;64.10
56374;BME280;58212;47.034;7.376;2023-07-24T00:39:23;94764.94;;;19.62;64.45
56374;BME280;58212;47.034;7.376;2023-07-24T00:41:54;94771.81;;;19.55;64.50
56374;BME280;58212;47.034;7.376;2023-07-24T00:44:20;94767.25;;;19.55;64.21
56374;BME280;58212;47.034;7.376;2023-07-24T00:46:47;94752.22;;;19.54;64.17
56374;BME280;58212;47.034;7.376;2023-07-24T00:49:14;94754.81;;;19.59;64.06
56374;BME280;58212;47.034;7.376;2023-07-24T00:51:42;94760.28;;;19.54;64.24
56374;BME280;58212;47.034;7.376;2023-07-24T00:54:11;94756.38;;;19.60;64.15
56374;BME280;58212;47.034;7.376;2023-07-24T00:56:39;94753.50;;;19.57;64.17
56374;BME280;58212;47.034;7.376;2023-07-24T00:59:06;94750.56;;;19.44;64.78
56374;BME280;58212;47.034;7.376;2023-07-24T01:01:32;94755.16;;;19.44;65.12
56374;BME280;58212;47.034;7.376;2023-07-24T01:04:01;94744.91;;;19.32;65.63
56374;BME280;58212;47.034;7.376;2023-07-24T01:06:31;94748.78;;;19.26;65.76
56374;BME280;58212;47.034;7.376;2023-07-24T01:08:58;94746.78;;;19.32;65.53
56374;BME280;58212;47.034;7.376;2023-07-24T01:11:29;94749.66;;;19.35;65.38
56374;BME280;58212;47.034;7.376;2023-07-24T01:14:02;94743.28;;;19.45;65.09
56374;BME280;58212;47.034;7.376;2023-07-24T01:16:36;94738.03;;;19.40;64.84
56374;BME280;58212;47.034;7.376;2023-07-24T01:19:09;94737.03;;;19.36;65.14
56374;BME280;58212;47.034;7.376;2023-07-24T01:21:44;94733.84;;;19.34;65.32
56374;BME280;58212;47.034;7.376;2023-07-24T01:24:24;94729.31;;;19.21;65.77
56374;BME280;58212;47.034;7.376;2023-07-24T01:26:57;94737.78;;;19.00;66.70
56374;BME280;58212;47.034;7.376;2023-07-24T01:29:24;94731.06;;;19.03;66.08
56374;BME280;58212;47.034;7.376;2023-07-24T01:31:51;94728.41;;;18.89;66.40
56374;BME280;58212;47.034;7.376;2023-07-24T01:34:18;94728.47;;;18.98;66.97
56374;BME280;58212;47.034;7.376;2023-07-24T01:36:45;94725.81;;;18.84;67.27
56374;BME280;58212;47.034;7.376;2023-07-24T01:39:13;94718.16;;;18.64;68.16
56374;BME280;58212;47.034;7.376;2023-07-24T01:41:41;94707.44;;;18.50;68.67
56374;BME280;58212;47.034;7.376;2023-07-24T01:44:09;94702.81;;;18.56;68.82
56374;BME280;58212;47.034;7.376;2023-07-24T01:46:36;94696.91;;;18.68;68.63
56374;BME280;58212;47.034;7.376;2023-07-24T01:49:02;94696.16;;;18.67;68.29
56374;BME280;58212;47.034;7.376;2023-07-24T01:51:29;94683.34;;;18.78;68.06
56374;BME280;58212;47.034;7.376;2023-07-24T01:53:55;94681.13;;;18.80;68.00
56374;BME280;58212;47.034;7.376;2023-07-24T01:56:22;94683.31;;;18.64;68.55
56374;BME280;58212;47.034;7.376;2023-07-24T01:58:49;94682.13;;;18.57;68.73
56374;BME280;58212;47.034;7.376;2023-07-24T02:01:17;94683.94;;;18.61;68.54
56374;BME280;58212;47.034;7.376;2023-07-24T02:03:43;94675.22;;;18.56;68.65
56374;BME280;58212;47.034;7.376;2023-07-24T02:06:11;94680.94;;;18.49;68.48
56374;BME280;58212;47.034;7.376;2023-07-24T02:08:37;94669.94;;;18.64;68.17
56374;BME280;58212;47.034;7.376;2023-07-24T02:11:04;94665.38;;;18.65;68.02
56374;BME280;58212;47.034;7.376;2023-07-24T02:13:31;94670.34;;;18.58;68.42
56374;BME280;58212;47.034;7.376;2023-07-24T02:15:58;94668.25;;;18.54;68.61
56374;BME280;58212;47.034;7.376;2023-07-24T02:18:26;94681.56;;;18.60;68.48
56374;BME280;58212;47.034;7.376;2023-07-24T02:20:52;94681.56;;;18.60;68.13
56374;BME280;58212;47.034;7.376;2023-07-24T02:23:19;94685.41;;;18.53;68.62
56374;BME280;58212;47.034;7.376;2023-07-24T02:25:50;94674.41;;;18.55;68.28
56374;BME280;58212;47.034;7.376;2023-07-24T02:28:17;94672.13;;;18.48;68.37
56374;BME280;58212;47.034;7.376;2023-07-24T02:30:48;94671.22;;;18.53;68.25
56374;BME280;58212;47.034;7.376;2023-07-24T02:33:40;94679.16;;;18.58;68.28
56374;BME280;58212;47.034;7.376;2023-07-24T02:36:07;94669.53;;;18.57;68.37
56374;BME280;58212;47.034;7.376;2023-07-24T02:38:35;94663.69;;;18.55;68.67
56374;BME280;58212;47.034;7.376;2023-07-24T02:41:02;94661.22;;;18.59;68.53
56374;BME280;58212;47.034;7.376;2023-07-24T02:43:28;94671.94;;;18.59;68.35
56374;BME280;58212;47.034;7.376;2023-07-24T02:46:00;94666.84;;;18.57;68.28
56374;BME280;58212;47.034;7.376;2023-07-24T02:48:26;94665.16;;;18.61;68.45
56374;BME280;58212;47.034;7.376;2023-07-24T02:50:55;94671.94;;;18.59;68.80
56374;BME280;58212;47.034;7.376;2023-07-24T02:53:22;94670.53;;;18.61;68.89
56374;BME280;58212;47.034;7.376;2023-07-24T02:55:48;94667.84;;;18.61;68.84
56374;BME280;58212;47.034;7.376;2023-07-24T02:58:16;94653.06;;;18.64;69.16
56374;BME280;58212;47.034;7.376;2023-07-24T03:00:43;94651.69;;;18.66;68.75
56374;BME280;58212;47.034;7.376;2023-07-24T03:03:10;94646.31;;;18.66;68.86
56374;BME280;58212;47.034;7.376;2023-07-24T03:05:36;94643.63;;;18.66;69.06
56374;BME280;58212;47.034;7.376;2023-07-24T03:08:05;94637.06;;;18.72;68.71
56374;BME280;58212;47.034;7.376;2023-07-24T03:10:32;94631.59;;;18.77;68.72
56374;BME280;58212;47.034;7.376;2023-07-24T03:12:58;94636.59;;;18.70;69.08
56374;BME280;58212;47.034;7.376;2023-07-24T03:15:25;94637.38;;;18.71;69.51
56374;BME280;58212;47.034;7.376;2023-07-24T03:17:52;94652.53;;;18.75;69.12
56374;BME280;58212;47.034;7.376;2023-07-24T03:20:20;94647.28;;;18.84;68.35
56374;BME280;58212;47.034;7.376;2023-07-24T03:22:47;94655.41;;;18.92;67.22
56374;BME280;58212;47.034;7.376;2023-07-24T03:25:15;94656.16;;;19.07;66.66
56374;BME280;58212;47.034;7.376;2023-07-24T03:27:42;94671.53;;;19.15;66.57
56374;BME280;58212;47.034;7.376;2023-07-24T03:30:09;94694.44;;;19.21;66.05
56374;BME280;58212;47.034;7.376;2023-07-24T03:32:36;94707.88;;;19.21;66.24
56374;BME280;58212;47.034;7.376;2023-07-24T03:35:04;94743.72;;;19.25;66.60
56374;BME280;58212;47.034;7.376;2023-07-24T03:37:30;94752.94;;;19.32;67.34
56374;BME280;58212;47.034;7.376;2023-07-24T03:39:57;94796.16;;;19.31;68.42
56374;BME280;58212;47.034;7.376;2023-07-24T03:42:26;94822.41;;;19.20;69.53
56374;BME280;58212;47.034;7.376;2023-07-24T03:44:54;94880.84;;;19.10;70.14
56374;BME280;58212;47.034;7.376;2023-07-24T03:47:21;94895.94;;;19.06;70.42
56374;BME280;58212;47.034;7.376;2023-07-24T03:49:48;94923.78;;;19.37;71.45
56374;BME280;58212;47.034;7.376;2023-07-24T03:52:15;94949.03;;;19.90;69.62
56374;BME280;58212;47.034;7.376;2023-07-24T03:54:41;94993.41;;;19.88;71.85
56374;BME280;58212;47.034;7.376;2023-07-24T03:57:08;95034.22;;;19.12;73.81
56374;BME280;58212;47.034;7.376;2023-07-24T03:59:37;95031.09;;;18.72;73.97
56374;BME280;58212;47.034;7.376;2023-07-24T04:02:07;95049.75;;;18.64;76.62
56374;BME280;58212;47.034;7.376;2023-07-24T04:04:33;95035.41;;;18.31;77.58
56374;BME280;58212;47.034;7.376;2023-07-24T04:07:00;95036.44;;;18.35;78.63
56374;BME280;58212;47.034;7.376;2023-07-24T04:09:27;95032.78;;;18.07;79.77
56374;BME280;58212;47.034;7.376;2023-07-24T04:11:53;95024.69;;;18.31;79.90
56374;BME280;58212;47.034;7.376;2023-07-24T04:14:47;95013.88;;;18.41;78.41
56374;BME280;58212;47.034;7.376;2023-07-24T04:17:15;94987.44;;;18.53;79.07
56374;BME280;58212;47.034;7.376;2023-07-24T04:19:42;94941.09;;;18.34;78.92
56374;BME280;58212;47.034;7.376;2023-07-24T04:22:08;94975.56;;;18.40;79.76
56374;BME280;58212;47.034;7.376;2023-07-24T04:24:35;94971.38;;;18.16;80.40
56374;BME280;58212;47.034;7.376;2023-07-24T04:27:02;94946.66;;;18.00;81.25
56374;BME280;58212;47.034;7.376;2023-07-24T04:29:29;94943.91;;;18.24;80.12
56374;BME280;58212;47.034;7.376;2023-07-24T04:31:57;94932.38;;;18.42;78.96
56374;BME280;58212;47.034;7.376;2023-07-24T04:34:24;94921.66;;;18.42;79.32
56374;BME280;58212;47.034;7.376;2023-07-24T04:36:50;94920.16;;;18.36;80.24
56374;BME280;58212;47.034;7.376;2023-07-24T04:39:17;94895.56;;;18.34;80.31
56374;BME280;58212;47.034;7.376;2023-07-24T04:41:44;94871.91;;;18.22;80.19
56374;BME280;58212;47.034;7.376;2023-07-24T04:44:11;94847.13;;;18.30;79.90
56374;BME280;58212;47.034;7.376;2023-07-24T04:46:37;94850.13;;;18.42;79.94
56374;BME280;58212;47.034;7.376;2023-07-24T04:49:06;94849.41;;;18.37;80.81
56374;BME280;58212;47.034;7.376;2023-07-24T04:51:34;94835.78;;;18.20;81.87
56374;BME280;58212;47.034;7.376;2023-07-24T04:54:01;94825.59;;;18.03;82.32
56374;BME280;58212;47.034;7.376;2023-07-24T04:56:27;94835.59;;;17.97;82.60
56374;BME280;58212;47.034;7.376;2023-07-24T04:58:55;94847.06;;;18.17;82.06
56374;BME280;58212;47.034;7.376;2023-07-24T05:01:21;94843.97;;;18.10;82.24
56374;BME280;58212;47.034;7.376;2023-07-24T05:03:49;94861.56;;;18.16;82.32
56374;BME280;58212;47.034;7.376;2023-07-24T05:06:17;94871.97;;;18.17;82.20
56374;BME280;58212;47.034;7.376;2023-07-24T05:09:08;94879.63;;;18.24;82.43
56374;BME280;58212;47.034;7.376;2023-07-24T05:11:35;94871.31;;;18.06;83.03
56374;BME280;58212;47.034;7.376;2023-07-24T05:14:01;94861.41;;;18.07;83.21
56374;BME280;58212;47.034;7.376;2023-07-24T05:16:28;94845.97;;;18.18;82.71
56374;BME280;58212;47.034;7.376;2023-07-24T05:18:56;94813.84;;;18.18;82.22
56374;BME280;58212;47.034;7.376;2023-07-24T05:21:24;94801.53;;;18.17;82.99
56374;BME280;58212;47.034;7.376;2023-07-24T05:23:51;94785.09;;;17.91;83.00
56374;BME280;58212;47.034;7.376;2023-07-24T05:26:17;94765.59;;;18.04;83.32
56374;BME280;58212;47.034;7.376;2023-07-24T05:28:44;94749.84;;;18.16;83.16
56374;BME280;58212;47.034;7.376;2023-07-24T05:31:12;94760.78;;;18.20;83.13
56374;BME280;58212;47.034;7.376;2023-07-24T05:33:40;94780.66;;;18.32;82.82
56374;BME280;58212;47.034;7.376;2023-07-24T05:36:06;94794.31;;;18.31;82.99
56374;BME280;58212;47.034;7.376;2023-07-24T05:38:36;94785.50;;;18.30;83.27
56374;BME280;58212;47.034;7.376;2023-07-24T05:41:03;94773.84;;;18.08;84.04
56374;BME280;58212;47.034;7.376;2023-07-24T05:43:32;94763.88;;;17.94;84.58
56374;BME280;58212;47.034;7.376;2023-07-24T05:45:59;94737.81;;;18.00;84.59
56374;BME280;58212;47.034;7.376;2023-07-24T05:48:25;94755.19;;;18.16;84.62
56374;BME280;58212;47.034;7.376;2023-07-24T05:50:52;94773.41;;;18.46;83.50
56374;BME280;58212;47.034;7.376;2023-07-24T05:53:19;94775.38;;;18.60;82.74
56374;BME280;58212;47.034;7.376;2023-07-24T05:56:12;94780.81;;;18.68;82.88
56374;BME280;58212;47.034;7.376;2023-07-24T05:59:02;94766.06;;;19.34;80.78
56374;BME280;58212;47.034;7.376;2023-07-24T06:01:30;94761.72;;;20.80;76.78
56374;BME280;58212;47.034;7.376;2023-07-24T06:03:58;94758.47;;;21.09;74.46
56374;BME280;58212;47.034;7.376;2023-07-24T06:06:24;94758.38;;;20.43;77.08
56374;BME280;58212;47.034;7.376;2023-07-24T06:08:52;94765.84;;;20.02;79.13
56374;BME280;58212;47.034;7.376;2023-07-24T06:11:20;94760.41;;;19.71;81.10
56374;BME280;58212;47.034;7.376;2023-07-24T06:13:49;94772.25;;;19.70;81.96
56374;BME280;58212;47.034;7.376;2023-07-24T06:16:15;94777.75;;;19.65;82.01
56374;BME280;58212;47.034;7.376;2023-07-24T06:18:42;94776.16;;;19.64;81.75
56374;BME280;58212;47.034;7.376;2023-07-24T06:21:12;94784.19;;;19.64;81.75
56374;BME280;58212;47.034;7.376;2023-07-24T06:23:38;94784.19;;;19.64;81.15
56374;BME280;58212;47.034;7.376;2023-07-24T06:26:05;94781.50;;;19.64;82.14
56374;BME280;58212;47.034;7.376;2023-07-24T06:28:33;94791.44;;;19.64;81.57
56374;BME280;58212;47.034;7.376;2023-07-24T06:31:00;94799.16;;;19.43;82.19
56374;BME280;58212;47.034;7.376;2023-07-24T06:33:26;94798.38;;;19.42;82.18
56374;BME280;58212;47.034;7.376;2023-07-24T06:35:54;94794.78;;;19.20;82.06
56374;BME280;58212;47.034;7.376;2023-07-24T06:38:22;94803.53;;;19.12;82.41
56374;BME280;58212;47.034;7.376;2023-07-24T06:40:48;94803.16;;;19.18;81.18
56374;BME280;58212;47.034;7.376;2023-07-24T06:43:17;94791.06;;;19.57;82.07
56374;BME280;58212;47.034;7.376;2023-07-24T06:45:47;94796.50;;;19.16;81.20
56374;BME280;58212;47.034;7.376;2023-07-24T06:48:14;94791.44;;;19.14;81.00
56374;BME280;58212;47.034;7.376;2023-07-24T06:50:41;94797.06;;;19.40;82.14
56374;BME280;58212;47.034;7.376;2023-07-24T06:53:08;94807.59;;;19.50;82.52
56374;BME280;58212;47.034;7.376;2023-07-24T06:55:34;94812.69;;;19.52;81.86
56374;BME280;58212;47.034;7.376;2023-07-24T06:58:01;94810.69;;;19.30;82.46
56374;BME280;58212;47.034;7.376;2023-07-24T07:00:28;94813.06;;;19.31;83.53
56374;BME280;58212;47.034;7.376;2023-07-24T07:02:56;94795.88;;;19.32;82.40
56374;BME280;58212;47.034;7.376;2023-07-24T07:05:47;94788.72;;;19.41;83.10
56374;BME280;58212;47.034;7.376;2023-07-24T07:08:14;94791.22;;;19.52;81.93
56374;BME280;58212;47.034;7.376;2023-07-24T07:10:41;94782.97;;;19.48;81.91
56374;BME280;58212;47.034;7.376;2023-07-24T07:13:07;94765.56;;;19.45;82.49
56374;BME280;58212;47.034;7.376;2023-07-24T07:15:35;94767.34;;;19.36;81.90
56374;BME280;58212;47.034;7.376;2023-07-24T07:18:03;94755.34;;;19.20;82.70
56374;BME280;58212;47.034;7.376;2023-07-24T07:20:30;94757.44;;;19.23;82.72
56374;BME280;58212;47.034;7.376;2023-07-24T07:22:56;94739.06;;;19.17;82.64
56374;BME280;58212;47.034;7.376;2023-07-24T07:25:23;94710.47;;;19.12;82.72
56374;BME280;58212;47.034;7.376;2023-07-24T07:27:50;94695.63;;;19.28;82.63
56374;BME280;58212;47.034;7.376;2023-07-24T07:30:17;94679.25;;;19.52;81.17
56374;BME280;58212;47.034;7.376;2023-07-24T07:32:43;94692.38;;;19.76;80.89
56374;BME280;58212;47.034;7.376;2023-07-24T07:35:11;94695.59;;;19.86;82.04
56374;BME280;58212;47.034;7.376;2023-07-24T07:37:40;94692.75;;;20.14;80.73
56374;BME280;58212;47.034;7.376;2023-07-24T07:40:08;94702.25;;;20.42;79.88
56374;BME280;58212;47.034;7.376;2023-07-24T07:42:34;94705.16;;;20.63;79.06
56374;BME280;58212;47.034;7.376;2023-07-24T07:45:01;94696.22;;;20.93;78.83
56374;BME280;58212;47.034;7.376;2023-07-24T07:47:28;94704.97;;;20.99;78.32
56374;BME280;58212;47.034;7.376;2023-07-24T07:49:55;94701.06;;;21.13;75.91
56374;BME280;58212;47.034;7.376;2023-07-24T07:52:23;94700.41;;;21.25;74.97
56374;BME280;58212;47.034;7.376;2023-07-24T07:54:49;94699.81;;;21.28;74.28
56374;BME280;58212;47.034;7.376;2023-07-24T07:57:16;94702.25;;;21.07;73.74
56374;BME280;58212;47.034;7.376;2023-07-24T07:59:43;94686.59;;;21.01;72.25
56374;BME280;58212;47.034;7.376;2023-07-24T08:02:09;94695.44;;;21.10;71.96
56374;BME280;58212;47.034;7.376;2023-07-24T08:04:36;94679.53;;;21.22;73.20
56374;BME280;58212;47.034;7.376;2023-07-24T08:07:05;94698.53;;;21.34;72.87
56374;BME280;58212;47.034;7.376;2023-07-24T08:09:33;94682.38;;;21.60;70.29
56374;BME280;58212;47.034;7.376;2023-07-24T08:12:02;94671.41;;;21.82;69.80
56374;BME280;58212;47.034;7.376;2023-07-24T08:14:29;94664.63;;;21.50;70.48
56374;BME280;58212;47.034;7.376;2023-07-24T08:16:56;94638.00;;;21.83;67.87
56374;BME280;58212;47.034;7.376;2023-07-24T08:19:23;94629.38;;;22.07;66.87
56374;BME280;58212;47.034;7.376;2023-07-24T08:21:51;94625.56;;;22.08;67.75
56374;BME280;58212;47.034;7.376;2023-07-24T08:24:18;94648.28;;;21.81;67.39
56374;BME280;58212;47.034;7.376;2023-07-24T08:26:46;94640.94;;;22.07;68.24
56374;BME280;58212;47.034;7.376;2023-07-24T08:29:13;94620.63;;;21.29;68.17
56374;BME280;58212;47.034;7.376;2023-07-24T08:31:40;94606.84;;;21.48;70.26
56374;BME280;58212;47.034;7.376;2023-07-24T08:34:06;94602.41;;;21.52;71.26
56374;BME280;58212;47.034;7.376;2023-07-24T08:36:33;94599.94;;;21.84;71.59
56374;BME280;58212;47.034;7.376;2023-07-24T08:39:01;94606.25;;;22.64;67.64
56374;BME280;58212;47.034;7.376;2023-07-24T08:41:27;94606.53;;;23.01;65.79
56374;BME280;58212;47.034;7.376;2023-07-24T08:43:56;94627.13;;;22.84;65.56
56374;BME280;58212;47.034;7.376;2023-07-24T08:46:23;94627.03;;;22.72;67.48
56374;BME280;58212;47.034;7.376;2023-07-24T08:48:52;94628.31;;;22.96;66.64
56374;BME280;58212;47.034;7.376;2023-07-24T08:51:22;94638.06;;;23.09;66.37
56374;BME280;58212;47.034;7.376;2023-07-24T08:53:50;94650.72;;;23.17;67.20
56374;BME280;58212;47.034;7.376;2023-07-24T08:56:21;94670.44;;;23.09;66.96
56374;BME280;58212;47.034;7.376;2023-07-24T08:58:47;94676.28;;;22.14;66.06
56374;BME280;58212;47.034;7.376;2023-07-24T09:01:16;94690.63;;;21.72;67.27
56374;BME280;58212;47.034;7.376;2023-07-24T09:03:47;94687.44;;;21.78;68.98
56374;BME280;58212;47.034;7.376;2023-07-24T09:06:14;94677.59;;;21.65;68.79
56374;BME280;58212;47.034;7.376;2023-07-24T09:08:42;94671.09;;;21.83;71.88
56374;BME280;58212;47.034;7.376;2023-07-24T09:11:10;94680.13;;;21.87;68.42
56374;BME280;58212;47.034;7.376;2023-07-24T09:13:41;94674.09;;;21.90;70.12
56374;BME280;58212;47.034;7.376;2023-07-24T09:16:08;94659.19;;;21.84;69.81
56374;BME280;58212;47.034;7.376;2023-07-24T09:18:40;94607.06;;;21.80;68.65
56374;BME280;58212;47.034;7.376;2023-07-24T09:21:07;94598.91;;;21.68;68.48
56374;BME280;58212;47.034;7.376;2023-07-24T09:23:34;94583.72;;;22.02;67.85
56374;BME280;58212;47.034;7.376;2023-07-24T09:26:05;94578.63;;;22.09;68.75
56374;BME280;58212;47.034;7.376;2023-07-24T09:28:32;94580.78;;;22.82;67.74
56374;BME280;58212;47.034;7.376;2023-07-24T09:31:00;94581.38;;;23.09;65.68
56374;BME280;58212;47.034;7.376;2023-07-24T09:33:34;94601.81;;;23.18;64.68
56374;BME280;58212;47.034;7.376;2023-07-24T09:36:04;94638.41;;;23.07;65.70
56374;BME280;58212;47.034;7.376;2023-07-24T09:38:32;94658.31;;;22.65;67.46
56374;BME280;58212;47.034;7.376;2023-07-24T09:41:01;94677.72;;;22.50;68.55
56374;BME280;58212;47.034;7.376;2023-07-24T09:43:28;94673.25;;;22.62;67.95
56374;BME280;58212;47.034;7.376;2023-07-24T09:45:56;94670.97;;;22.81;65.96
56374;BME280;58212;47.034;7.376;2023-07-24T09:48:25;94653.88;;;22.60;66.05
56374;BME280;58212;47.034;7.376;2023-07-24T09:50:53;94653.13;;;22.60;67.62
56374;BME280;58212;47.034;7.376;2023-07-24T09:53:26;94660.19;;;23.02;64.12
56374;BME280;58212;47.034;7.376;2023-07-24T09:55:58;94660.25;;;23.35;64.71
56374;BME280;58212;47.034;7.376;2023-07-24T09:58:25;94684.44;;;23.52;63.71
56374;BME280;58212;47.034;7.376;2023-07-24T10:00:53;94678.38;;;23.34;62.86
56374;BME280;58212;47.034;7.376;2023-07-24T10:03:22;94702.25;;;23.03;63.78
56374;BME280;58212;47.034;7.376;2023-07-24T10:05:49;94698.34;;;22.54;67.16
56374;BME280;58212;47.034;7.376;2023-07-24T10:08:18;94697.03;;;22.69;66.01
56374;BME280;58212;47.034;7.376;2023-07-24T10:10:46;94694.34;;;22.60;67.76
56374;BME280;58212;47.034;7.376;2023-07-24T10:13:17;94711.53;;;22.47;67.04
56374;BME280;58212;47.034;7.376;2023-07-24T10:15:46;94696.44;;;22.00;69.24
56374;BME280;58212;47.034;7.376;2023-07-24T10:18:16;94701.91;;;22.37;68.18
56374;BME280;58212;47.034;7.376;2023-07-24T10:20:43;94698.34;;;22.54;67.77
56374;BME280;58212;47.034;7.376;2023-07-24T10:23:15;94687.91;;;22.44;68.68
56374;BME280;58212;47.034;7.376;2023-07-24T10:25:45;94684.31;;;23.28;66.15
56374;BME280;58212;47.034;7.376;2023-07-24T10:28:13;94695.13;;;23.49;64.78
56374;BME280;58212;47.034;7.376;2023-07-24T10:30:54;94711.25;;;23.36;62.90
56374;BME280;58212;47.034;7.376;2023-07-24T10:33:21;94722.16;;;23.19;65.58
56374;BME280;58212;47.034;7.376;2023-07-24T10:35:51;94723.72;;;22.53;65.60
56374;BME280;58212;47.034;7.376;2023-07-24T10:38:18;94706.72;;;22.61;65.29
56374;BME280;58212;47.034;7.376;2023-07-24T10:40:45;94681.19;;;22.97;65.32
56374;BME280;58212;47.034;7.376;2023-07-24T10:43:19;94672.72;;;22.77;65.56
56374;BME280;58212;47.034;7.376;2023-07-24T10:45:48;94670.41;;;22.97;66.23
56374;BME280;58212;47.034;7.376;2023-07-24T10:48:15;94669.59;;;22.58;66.17
56374;BME280;58212;47.034;7.376;2023-07-24T10:50:43;94674.66;;;22.68;65.76
56374;BME280;58212;47.034;7.376;2023-07-24T10:53:13;94673.66;;;22.81;65.88
56374;BME280;58212;47.034;7.376;2023-07-24T10:55:41;94681.47;;;22.74;65.13
56374;BME280;58212;47.034;7.376;2023-07-24T10:58:08;94684.69;;;22.59;65.54
56374;BME280;58212;47.034;7.376;2023-07-24T11:01:03;94688.06;;;22.48;66.28
56374;BME280;58212;47.034;7.376;2023-07-24T11:03:55;94688.22;;;22.89;66.34
56374;BME280;58212;47.034;7.376;2023-07-24T11:06:23;94674.88;;;23.34;63.50
56374;BME280;58212;47.034;7.376;2023-07-24T11:08:54;94658.31;;;22.73;64.65
56374;BME280;58212;47.034;7.376;2023-07-24T11:11:21;94664.47;;;23.03;65.65
56374;BME280;58212;47.034;7.376;2023-07-24T11:13:48;94665.94;;;23.42;63.98
56374;BME280;58212;47.034;7.376;2023-07-24T11:16:17;94665.53;;;23.73;63.02
56374;BME280;58212;47.034;7.376;2023-07-24T11:18:45;94666.59;;;23.60;63.47
56374;BME280;58212;47.034;7.376;2023-07-24T11:21:14;94654.38;;;23.12;65.36
56374;BME280;58212;47.034;7.376;2023-07-24T11:23:48;94653.69;;;23.03;66.21
56374;BME280;58212;47.034;7.376;2023-07-24T11:26:18;94646.50;;;23.28;64.57
56374;BME280;58212;47.034;7.376;2023-07-24T11:28:45;94630.81;;;23.63;62.23
56374;BME280;58212;47.034;7.376;2023-07-24T11:31:12;94625.69;;;23.82;62.08
56374;BME280;58212;47.034;7.376;2023-07-24T11:33:42;94617.88;;;24.01;62.23
56374;BME280;58212;47.034;7.376;2023-07-24T11:36:11;94610.38;;;24.19;62.87
56374;BME280;58212;47.034;7.376;2023-07-24T11:38:38;94612.19;;;24.39;60.57
56374;BME280;58212;47.034;7.376;2023-07-24T11:41:05;94616.91;;;24.78;58.31
56374;BME280;58212;47.034;7.376;2023-07-24T11:43:33;94616.38;;;24.61;58.80
56374;BME280;58212;47.034;7.376;2023-07-24T11:46:00;94603.28;;;24.63;58.73
56374;BME280;58212;47.034;7.376;2023-07-24T11:48:26;94613.41;;;24.17;59.13
56374;BME280;58212;47.034;7.376;2023-07-24T11:50:55;94601.94;;;24.45;57.52
56374;BME280;58212;47.034;7.376;2023-07-24T11:53:47;94609.94;;;24.53;56.88
56374;BME280;58212;47.034;7.376;2023-07-24T11:56:15;94597.88;;;24.39;55.98
56374;BME280;58212;47.034;7.376;2023-07-24T11:58:42;94593.91;;;24.85;56.18
56374;BME280;58212;47.034;7.376;2023-07-24T12:01:23;94591.72;;;25.02;55.90
56374;BME280;58212;47.034;7.376;2023-07-24T12:03:58;94578.84;;;25.51;52.56
56374;BME280;58212;47.034;7.376;2023-07-24T12:06:58;94571.13;;;25.81;52.42
56374;BME280;58212;47.034;7.376;2023-07-24T12:09:29;94568.28;;;25.62;53.61
56374;BME280;58212;47.034;7.376;2023-07-24T12:11:58;94567.13;;;25.07;52.90
56374;BME280;58212;47.034;7.376;2023-07-24T12:14:25;94560.75;;;24.88;53.91
56374;BME280;58212;47.034;7.376;2023-07-24T12:17:00;94553.06;;;25.29;54.30
56374;BME280;58212;47.034;7.376;2023-07-24T12:19:27;94559.00;;;25.07;53.24
56374;BME280;58212;47.034;7.376;2023-07-24T12:21:54;94549.41;;;25.10;52.97
56374;BME280;58212;47.034;7.376;2023-07-24T12:24:22;94542.28;;;25.17;53.67
56374;BME280;58212;47.034;7.376;2023-07-24T12:26:49;94540.91;;;25.23;52.61
56374;BME280;58212;47.034;7.376;2023-07-24T12:29:16;94528.34;;;25.31;52.34
56374;BME280;58212;47.034;7.376;2023-07-24T12:31:42;94540.25;;;25.14;52.97
56374;BME280;58212;47.034;7.376;2023-07-24T12:34:11;94531.00;;;25.15;53.64
56374;BME280;58212;47.034;7.376;2023-07-24T12:36:37;94528.06;;;25.20;52.96
56374;BME280;58212;47.034;7.376;2023-07-24T12:39:04;94527.38;;;24.71;54.16
56374;BME280;58212;47.034;7.376;2023-07-24T12:41:32;94528.31;;;24.51;55.01
56374;BME280;58212;47.034;7.376;2023-07-24T12:43:59;94522.56;;;24.65;55.11
56374;BME280;58212;47.034;7.376;2023-07-24T12:46:26;94500.16;;;24.40;56.39
56374;BME280;58212;47.034;7.376;2023-07-24T12:48:52;94493.72;;;24.45;58.47
56374;BME280;58212;47.034;7.376;2023-07-24T12:51:19;94505.66;;;24.56;56.14
56374;BME280;58212;47.034;7.376;2023-07-24T12:53:46;94525.41;;;24.44;55.66
56374;BME280;58212;47.034;7.376;2023-07-24T12:56:13;94504.44;;;24.29;55.50
56374;BME280;58212;47.034;7.376;2023-07-24T12:58:42;94494.31;;;24.02;58.25
56374;BME280;58212;47.034;7.376;2023-07-24T13:01:10;94483.28;;;23.95;57.30
56374;BME280;58212;47.034;7.376;2023-07-24T13:03:36;94500.16;;;23.92;57.00
56374;BME280;58212;47.034;7.376;2023-07-24T13:06:03;94498.78;;;23.61;56.81
56374;BME280;58212;47.034;7.376;2023-07-24T13:08:30;94500.59;;;23.69;59.16